sensor_id;sensor_type;location;lat;lon;timestamp;P1;durP1;ratioP1;P2;durP2;ratioP2
38499;SDS011;24269;51.894;4.622;2023-01-26T00:01:26;49.05;;;15.27;;
38499;SDS011;24269;51.894;4.622;2023-01-26T00:03:53;52.90;;;16.08;;
38499;SDS011;24269;51.894;4.622;2023-01-26T00:06:20;50.00;;;16.10;;
38499;SDS011;24269;51.894;4.622;2023-01-26T00:08:47;53.08;;;16.70;;
38499;SDS011;24269;51.894;4.622;2023-01-26T00:11:18;53.65;;;17.25;;
38499;SDS011;24269;51.894;4.622;2023-01-26T00:13:50;56.28;;;15.57;;
38499;SDS011;24269;51.894;4.622;2023-01-26T00:16:19;58.25;;;16.58;;
38499;SDS011;24269;51.894;4.622;2023-01-26T00:18:44;52.58;;;15.25;;
38499;SDS011;24269;51.894;4.622;2023-01-26T00:21:11;51.97;;;16.00;;
38499;SDS011;24269;51.894;4.622;2023-01-26T00:23:39;48.05;;;15.40;;
38499;SDS011;24269;51.894;4.622;2023-01-26T00:26:05;50.08;;;15.48;;
38499;SDS011;24269;51.894;4.622;2023-01-26T00:28:32;50.72;;;14.77;;
38499;SDS011;24269;51.894;4.622;2023-01-26T00:31:02;43.63;;;14.45;;
38499;SDS011;24269;51.894;4.622;2023-01-26T00:33:32;50.13;;;15.82;;
38499;SDS011;24269;51.894;4.622;2023-01-26T00:35:58;48.40;;;14.20;;
38499;SDS011;24269;51.894;4.622;2023-01-26T00:38:24;49.30;;;15.07;;
38499;SDS011;24269;51.894;4.622;2023-01-26T00:40:49;50.35;;;14.77;;
38499;SDS011;24269;51.894;4.622;2023-01-26T00:43:15;44.55;;;14.43;;
38499;SDS011;24269;51.894;4.622;2023-01-26T00:45:41;48.50;;;14.60;;
38499;SDS011;24269;51.894;4.622;2023-01-26T00:48:06;45.67;;;14.38;;
38499;SDS011;24269;51.894;4.622;2023-01-26T00:50:32;48.72;;;14.18;;
38499;SDS011;24269;51.894;4.622;2023-01-26T00:52:58;48.65;;;15.70;;
38499;SDS011;24269;51.894;4.622;2023-01-26T00:55:24;48.28;;;15.43;;
38499;SDS011;24269;51.894;4.622;2023-01-26T00:57:56;57.65;;;15.55;;
38499;SDS011;24269;51.894;4.622;2023-01-26T01:00:39;46.38;;;14.70;;
38499;SDS011;24269;51.894;4.622;2023-01-26T01:03:05;50.67;;;15.43;;
38499;SDS011;24269;51.894;4.622;2023-01-26T01:05:31;39.30;;;12.55;;
38499;SDS011;24269;51.894;4.622;2023-01-26T01:07:58;48.22;;;14.85;;
38499;SDS011;24269;51.894;4.622;2023-01-26T01:10:23;47.38;;;13.65;;
38499;SDS011;24269;51.894;4.622;2023-01-26T01:12:51;50.33;;;14.52;;
38499;SDS011;24269;51.894;4.622;2023-01-26T01:15:17;44.92;;;14.32;;
38499;SDS011;24269;51.894;4.622;2023-01-26T01:17:42;52.53;;;15.48;;
38499;SDS011;24269;51.894;4.622;2023-01-26T01:20:08;44.22;;;13.05;;
38499;SDS011;24269;51.894;4.622;2023-01-26T01:22:35;46.78;;;15.25;;
38499;SDS011;24269;51.894;4.622;2023-01-26T01:25:01;44.67;;;14.20;;
38499;SDS011;24269;51.894;4.622;2023-01-26T01:27:27;51.25;;;14.02;;
38499;SDS011;24269;51.894;4.622;2023-01-26T01:29:52;43.97;;;14.35;;
38499;SDS011;24269;51.894;4.622;2023-01-26T01:32:18;54.42;;;15.95;;
38499;SDS011;24269;51.894;4.622;2023-01-26T01:34:47;47.10;;;14.30;;
38499;SDS011;24269;51.894;4.622;2023-01-26T01:37:14;49.25;;;14.88;;
38499;SDS011;24269;51.894;4.622;2023-01-26T01:39:40;44.08;;;14.57;;
38499;SDS011;24269;51.894;4.622;2023-01-26T01:42:06;49.15;;;14.55;;
38499;SDS011;24269;51.894;4.622;2023-01-26T01:44:35;48.80;;;15.18;;
38499;SDS011;24269;51.894;4.622;2023-01-26T01:47:05;45.97;;;15.00;;
38499;SDS011;24269;51.894;4.622;2023-01-26T01:49:45;42.67;;;13.35;;
38499;SDS011;24269;51.894;4.622;2023-01-26T01:52:21;47.30;;;14.18;;
38499;SDS011;24269;51.894;4.622;2023-01-26T01:57:23;50.40;;;15.15;;
38499;SDS011;24269;51.894;4.622;2023-01-26T02:00:02;49.95;;;14.38;;
38499;SDS011;24269;51.894;4.622;2023-01-26T02:02:32;49.97;;;15.52;;
38499;SDS011;24269;51.894;4.622;2023-01-26T02:05:03;52.38;;;15.95;;
38499;SDS011;24269;51.894;4.622;2023-01-26T02:07:36;42.60;;;15.38;;
38499;SDS011;24269;51.894;4.622;2023-01-26T02:10:02;54.22;;;15.85;;
38499;SDS011;24269;51.894;4.622;2023-01-26T02:12:45;45.58;;;15.70;;
38499;SDS011;24269;51.894;4.622;2023-01-26T02:15:12;56.85;;;16.92;;
38499;SDS011;24269;51.894;4.622;2023-01-26T02:17:38;47.05;;;15.05;;
38499;SDS011;24269;51.894;4.622;2023-01-26T02:20:10;50.47;;;14.38;;
38499;SDS011;24269;51.894;4.622;2023-01-26T02:22:48;45.33;;;14.93;;
38499;SDS011;24269;51.894;4.622;2023-01-26T02:25:37;42.85;;;14.43;;
38499;SDS011;24269;51.894;4.622;2023-01-26T02:28:06;47.72;;;14.40;;
38499;SDS011;24269;51.894;4.622;2023-01-26T02:30:32;44.35;;;13.68;;
38499;SDS011;24269;51.894;4.622;2023-01-26T02:32:58;49.97;;;14.88;;
38499;SDS011;24269;51.894;4.622;2023-01-26T02:35:23;43.53;;;13.95;;
38499;SDS011;24269;51.894;4.622;2023-01-26T02:37:49;46.20;;;14.48;;
38499;SDS011;24269;51.894;4.622;2023-01-26T02:40:26;46.72;;;15.45;;
38499;SDS011;24269;51.894;4.622;2023-01-26T02:43:14;57.47;;;17.48;;
38499;SDS011;24269;51.894;4.622;2023-01-26T02:45:40;50.10;;;14.65;;
38499;SDS011;24269;51.894;4.622;2023-01-26T02:48:07;48.88;;;14.88;;
38499;SDS011;24269;51.894;4.622;2023-01-26T02:50:33;42.20;;;14.27;;
38499;SDS011;24269;51.894;4.622;2023-01-26T02:52:59;42.83;;;14.20;;
38499;SDS011;24269;51.894;4.622;2023-01-26T02:55:25;46.50;;;14.48;;
38499;SDS011;24269;51.894;4.622;2023-01-26T02:57:53;43.85;;;13.52;;
38499;SDS011;24269;51.894;4.622;2023-01-26T03:00:28;44.83;;;15.80;;
38499;SDS011;24269;51.894;4.622;2023-01-26T03:02:56;42.13;;;13.65;;
38499;SDS011;24269;51.894;4.622;2023-01-26T03:05:24;44.50;;;14.00;;
38499;SDS011;24269;51.894;4.622;2023-01-26T03:07:50;41.70;;;14.10;;
38499;SDS011;24269;51.894;4.622;2023-01-26T03:10:16;45.22;;;13.80;;
38499;SDS011;24269;51.894;4.622;2023-01-26T03:12:42;44.50;;;14.35;;
38499;SDS011;24269;51.894;4.622;2023-01-26T03:15:08;44.13;;;13.30;;
38499;SDS011;24269;51.894;4.622;2023-01-26T03:18:00;40.30;;;12.52;;
38499;SDS011;24269;51.894;4.622;2023-01-26T03:20:45;39.97;;;12.27;;
38499;SDS011;24269;51.894;4.622;2023-01-26T03:23:29;38.28;;;12.82;;
38499;SDS011;24269;51.894;4.622;2023-01-26T03:26:14;36.63;;;12.18;;
38499;SDS011;24269;51.894;4.622;2023-01-26T03:28:58;38.45;;;11.68;;
38499;SDS011;24269;51.894;4.622;2023-01-26T03:31:24;45.45;;;13.52;;
38499;SDS011;24269;51.894;4.622;2023-01-26T03:33:49;40.10;;;13.30;;
38499;SDS011;24269;51.894;4.622;2023-01-26T03:36:15;34.03;;;11.77;;
38499;SDS011;24269;51.894;4.622;2023-01-26T03:38:40;38.10;;;12.90;;
38499;SDS011;24269;51.894;4.622;2023-01-26T03:41:06;41.97;;;12.88;;
38499;SDS011;24269;51.894;4.622;2023-01-26T03:43:50;37.67;;;12.52;;
38499;SDS011;24269;51.894;4.622;2023-01-26T03:46:34;33.92;;;12.18;;
38499;SDS011;24269;51.894;4.622;2023-01-26T03:49:19;33.30;;;12.18;;
38499;SDS011;24269;51.894;4.622;2023-01-26T03:52:03;36.47;;;12.63;;
38499;SDS011;24269;51.894;4.622;2023-01-26T03:54:47;35.70;;;12.75;;
38499;SDS011;24269;51.894;4.622;2023-01-26T03:57:31;34.20;;;11.90;;
38499;SDS011;24269;51.894;4.622;2023-01-26T03:59:57;33.25;;;11.95;;
38499;SDS011;24269;51.894;4.622;2023-01-26T04:02:23;37.75;;;12.60;;
38499;SDS011;24269;51.894;4.622;2023-01-26T04:05:07;39.00;;;12.68;;
38499;SDS011;24269;51.894;4.622;2023-01-26T04:07:52;40.42;;;11.98;;
38499;SDS011;24269;51.894;4.622;2023-01-26T04:10:36;36.47;;;12.48;;
38499;SDS011;24269;51.894;4.622;2023-01-26T04:13:02;34.35;;;11.57;;
38499;SDS011;24269;51.894;4.622;2023-01-26T04:15:46;34.00;;;11.40;;
38499;SDS011;24269;51.894;4.622;2023-01-26T04:18:31;37.83;;;11.88;;
38499;SDS011;24269;51.894;4.622;2023-01-26T04:21:15;39.00;;;12.23;;
38499;SDS011;24269;51.894;4.622;2023-01-26T04:23:53;33.35;;;12.40;;
38499;SDS011;24269;51.894;4.622;2023-01-26T04:26:21;28.50;;;11.25;;
38499;SDS011;24269;51.894;4.622;2023-01-26T04:28:47;29.80;;;10.40;;
38499;SDS011;24269;51.894;4.622;2023-01-26T04:31:13;36.80;;;12.02;;
38499;SDS011;24269;51.894;4.622;2023-01-26T04:33:40;34.78;;;11.50;;
38499;SDS011;24269;51.894;4.622;2023-01-26T04:36:06;35.15;;;11.57;;
38499;SDS011;24269;51.894;4.622;2023-01-26T04:38:33;34.58;;;12.05;;
38499;SDS011;24269;51.894;4.622;2023-01-26T04:40:59;39.88;;;12.88;;
38499;SDS011;24269;51.894;4.622;2023-01-26T04:43:25;34.08;;;12.05;;
38499;SDS011;24269;51.894;4.622;2023-01-26T04:46:01;36.42;;;12.10;;
38499;SDS011;24269;51.894;4.622;2023-01-26T04:48:29;32.65;;;12.45;;
38499;SDS011;24269;51.894;4.622;2023-01-26T04:50:56;33.50;;;10.85;;
38499;SDS011;24269;51.894;4.622;2023-01-26T04:53:23;31.02;;;10.63;;
38499;SDS011;24269;51.894;4.622;2023-01-26T04:55:49;34.47;;;11.52;;
38499;SDS011;24269;51.894;4.622;2023-01-26T04:58:15;31.23;;;11.15;;
38499;SDS011;24269;51.894;4.622;2023-01-26T05:00:41;31.02;;;11.23;;
38499;SDS011;24269;51.894;4.622;2023-01-26T05:03:07;33.70;;;11.82;;
38499;SDS011;24269;51.894;4.622;2023-01-26T05:05:36;28.80;;;11.60;;
38499;SDS011;24269;51.894;4.622;2023-01-26T05:08:03;34.95;;;11.18;;
38499;SDS011;24269;51.894;4.622;2023-01-26T05:10:29;39.50;;;12.32;;
38499;SDS011;24269;51.894;4.622;2023-01-26T05:12:55;36.55;;;11.40;;
38499;SDS011;24269;51.894;4.622;2023-01-26T05:15:21;30.85;;;12.05;;
38499;SDS011;24269;51.894;4.622;2023-01-26T05:17:47;35.75;;;11.05;;
38499;SDS011;24269;51.894;4.622;2023-01-26T05:20:12;34.20;;;11.45;;
38499;SDS011;24269;51.894;4.622;2023-01-26T05:22:38;35.80;;;11.40;;
38499;SDS011;24269;51.894;4.622;2023-01-26T05:25:04;33.40;;;11.35;;
38499;SDS011;24269;51.894;4.622;2023-01-26T05:27:30;34.58;;;12.30;;
38499;SDS011;24269;51.894;4.622;2023-01-26T05:29:55;32.17;;;11.55;;
38499;SDS011;24269;51.894;4.622;2023-01-26T05:32:25;36.47;;;12.02;;
38499;SDS011;24269;51.894;4.622;2023-01-26T05:34:51;34.80;;;11.50;;
38499;SDS011;24269;51.894;4.622;2023-01-26T05:37:17;36.20;;;12.52;;
38499;SDS011;24269;51.894;4.622;2023-01-26T05:39:43;37.42;;;13.13;;
38499;SDS011;24269;51.894;4.622;2023-01-26T05:42:09;35.95;;;12.27;;
38499;SDS011;24269;51.894;4.622;2023-01-26T05:44:35;38.08;;;13.02;;
38499;SDS011;24269;51.894;4.622;2023-01-26T05:47:01;36.15;;;12.40;;
38499;SDS011;24269;51.894;4.622;2023-01-26T05:49:27;36.50;;;13.07;;
38499;SDS011;24269;51.894;4.622;2023-01-26T05:51:52;32.47;;;10.23;;
38499;SDS011;24269;51.894;4.622;2023-01-26T05:54:18;37.20;;;12.15;;
38499;SDS011;24269;51.894;4.622;2023-01-26T05:56:43;36.33;;;12.43;;
38499;SDS011;24269;51.894;4.622;2023-01-26T05:59:09;34.33;;;11.52;;
38499;SDS011;24269;51.894;4.622;2023-01-26T06:01:35;39.55;;;12.65;;
38499;SDS011;24269;51.894;4.622;2023-01-26T06:04:00;38.80;;;11.90;;
38499;SDS011;24269;51.894;4.622;2023-01-26T06:06:26;33.58;;;11.85;;
38499;SDS011;24269;51.894;4.622;2023-01-26T06:08:52;34.70;;;11.38;;
38499;SDS011;24269;51.894;4.622;2023-01-26T06:11:17;36.08;;;12.27;;
38499;SDS011;24269;51.894;4.622;2023-01-26T06:13:43;35.42;;;11.20;;
38499;SDS011;24269;51.894;4.622;2023-01-26T06:16:08;29.60;;;11.20;;
38499;SDS011;24269;51.894;4.622;2023-01-26T06:18:34;41.28;;;12.38;;
38499;SDS011;24269;51.894;4.622;2023-01-26T06:21:00;34.25;;;12.65;;
38499;SDS011;24269;51.894;4.622;2023-01-26T06:23:25;35.63;;;10.98;;
38499;SDS011;24269;51.894;4.622;2023-01-26T06:25:51;29.02;;;9.82;;
38499;SDS011;24269;51.894;4.622;2023-01-26T06:28:17;36.47;;;12.32;;
38499;SDS011;24269;51.894;4.622;2023-01-26T06:30:45;43.58;;;13.18;;
38499;SDS011;24269;51.894;4.622;2023-01-26T06:33:11;29.25;;;10.63;;
38499;SDS011;24269;51.894;4.622;2023-01-26T06:35:36;33.38;;;12.10;;
38499;SDS011;24269;51.894;4.622;2023-01-26T06:38:02;32.65;;;10.32;;
38499;SDS011;24269;51.894;4.622;2023-01-26T06:40:28;32.45;;;10.88;;
38499;SDS011;24269;51.894;4.622;2023-01-26T06:42:53;32.55;;;11.00;;
38499;SDS011;24269;51.894;4.622;2023-01-26T06:45:19;36.33;;;11.63;;
38499;SDS011;24269;51.894;4.622;2023-01-26T06:47:45;31.83;;;10.57;;
38499;SDS011;24269;51.894;4.622;2023-01-26T06:50:13;36.72;;;11.98;;
38499;SDS011;24269;51.894;4.622;2023-01-26T06:52:40;35.45;;;12.80;;
38499;SDS011;24269;51.894;4.622;2023-01-26T06:55:13;37.33;;;12.40;;
38499;SDS011;24269;51.894;4.622;2023-01-26T06:57:48;39.03;;;11.13;;
38499;SDS011;24269;51.894;4.622;2023-01-26T07:00:13;37.30;;;11.85;;
38499;SDS011;24269;51.894;4.622;2023-01-26T07:02:39;35.92;;;11.20;;
38499;SDS011;24269;51.894;4.622;2023-01-26T07:05:05;33.88;;;10.48;;
38499;SDS011;24269;51.894;4.622;2023-01-26T07:07:31;27.73;;;8.93;;
38499;SDS011;24269;51.894;4.622;2023-01-26T07:09:56;30.98;;;9.65;;
38499;SDS011;24269;51.894;4.622;2023-01-26T07:12:22;39.63;;;10.63;;
38499;SDS011;24269;51.894;4.622;2023-01-26T07:14:48;27.65;;;8.77;;
38499;SDS011;24269;51.894;4.622;2023-01-26T07:17:15;37.10;;;9.80;;
38499;SDS011;24269;51.894;4.622;2023-01-26T07:19:41;30.17;;;8.93;;
38499;SDS011;24269;51.894;4.622;2023-01-26T07:22:06;38.25;;;9.55;;
38499;SDS011;24269;51.894;4.622;2023-01-26T07:24:32;32.70;;;10.80;;
38499;SDS011;24269;51.894;4.622;2023-01-26T07:26:58;31.85;;;9.43;;
38499;SDS011;24269;51.894;4.622;2023-01-26T07:29:23;32.42;;;9.27;;
38499;SDS011;24269;51.894;4.622;2023-01-26T07:31:49;32.13;;;8.25;;
38499;SDS011;24269;51.894;4.622;2023-01-26T07:34:14;33.20;;;8.98;;
38499;SDS011;24269;51.894;4.622;2023-01-26T07:36:40;28.20;;;6.88;;
38499;SDS011;24269;51.894;4.622;2023-01-26T07:39:06;29.23;;;6.75;;
38499;SDS011;24269;51.894;4.622;2023-01-26T07:41:31;25.88;;;7.35;;
38499;SDS011;24269;51.894;4.622;2023-01-26T07:43:57;24.77;;;7.40;;
38499;SDS011;24269;51.894;4.622;2023-01-26T07:46:23;23.60;;;7.00;;
38499;SDS011;24269;51.894;4.622;2023-01-26T07:48:48;28.38;;;7.75;;
38499;SDS011;24269;51.894;4.622;2023-01-26T07:51:14;26.98;;;6.57;;
38499;SDS011;24269;51.894;4.622;2023-01-26T07:53:40;25.15;;;5.93;;
38499;SDS011;24269;51.894;4.622;2023-01-26T07:56:08;28.52;;;6.55;;
38499;SDS011;24269;51.894;4.622;2023-01-26T07:58:38;26.65;;;6.20;;
38499;SDS011;24269;51.894;4.622;2023-01-26T08:01:11;19.90;;;5.38;;
38499;SDS011;24269;51.894;4.622;2023-01-26T08:03:38;26.40;;;4.90;;
38499;SDS011;24269;51.894;4.622;2023-01-26T08:06:05;18.40;;;4.72;;
38499;SDS011;24269;51.894;4.622;2023-01-26T08:08:31;25.52;;;4.70;;
38499;SDS011;24269;51.894;4.622;2023-01-26T08:10:58;18.90;;;4.55;;
38499;SDS011;24269;51.894;4.622;2023-01-26T08:13:25;14.00;;;3.90;;
38499;SDS011;24269;51.894;4.622;2023-01-26T08:15:51;20.00;;;3.60;;
38499;SDS011;24269;51.894;4.622;2023-01-26T08:18:17;13.35;;;3.90;;
38499;SDS011;24269;51.894;4.622;2023-01-26T08:20:50;14.00;;;3.50;;
38499;SDS011;24269;51.894;4.622;2023-01-26T08:23:19;11.45;;;3.55;;
38499;SDS011;24269;51.894;4.622;2023-01-26T08:25:45;18.75;;;3.58;;
38499;SDS011;24269;51.894;4.622;2023-01-26T08:28:11;13.20;;;3.38;;
38499;SDS011;24269;51.894;4.622;2023-01-26T08:30:37;26.08;;;3.35;;
38499;SDS011;24269;51.894;4.622;2023-01-26T08:33:03;16.70;;;2.70;;
38499;SDS011;24269;51.894;4.622;2023-01-26T08:35:32;18.48;;;2.78;;
38499;SDS011;24269;51.894;4.622;2023-01-26T08:37:58;6.05;;;1.83;;
38499;SDS011;24269;51.894;4.622;2023-01-26T08:40:24;21.63;;;3.03;;
38499;SDS011;24269;51.894;4.622;2023-01-26T08:42:50;15.95;;;2.42;;
38499;SDS011;24269;51.894;4.622;2023-01-26T08:45:16;14.95;;;1.85;;
38499;SDS011;24269;51.894;4.622;2023-01-26T08:47:42;14.70;;;2.75;;
38499;SDS011;24269;51.894;4.622;2023-01-26T08:50:09;14.32;;;2.08;;
38499;SDS011;24269;51.894;4.622;2023-01-26T08:52:35;16.58;;;2.38;;
38499;SDS011;24269;51.894;4.622;2023-01-26T08:55:01;9.52;;;1.98;;
38499;SDS011;24269;51.894;4.622;2023-01-26T08:57:28;10.77;;;1.80;;
38499;SDS011;24269;51.894;4.622;2023-01-26T08:59:54;15.95;;;1.88;;
38499;SDS011;24269;51.894;4.622;2023-01-26T09:02:19;15.77;;;2.47;;
38499;SDS011;24269;51.894;4.622;2023-01-26T09:04:45;13.00;;;2.20;;
38499;SDS011;24269;51.894;4.622;2023-01-26T09:07:11;13.38;;;2.10;;
38499;SDS011;24269;51.894;4.622;2023-01-26T09:09:36;14.15;;;1.85;;
38499;SDS011;24269;51.894;4.622;2023-01-26T09:12:02;15.45;;;1.92;;
38499;SDS011;24269;51.894;4.622;2023-01-26T09:14:28;19.45;;;3.13;;
38499;SDS011;24269;51.894;4.622;2023-01-26T09:16:54;9.32;;;2.20;;
38499;SDS011;24269;51.894;4.622;2023-01-26T09:19:19;17.88;;;2.40;;
38499;SDS011;24269;51.894;4.622;2023-01-26T09:21:45;10.43;;;1.95;;
38499;SDS011;24269;51.894;4.622;2023-01-26T09:24:11;15.77;;;2.22;;
38499;SDS011;24269;51.894;4.622;2023-01-26T09:26:36;18.52;;;2.25;;
38499;SDS011;24269;51.894;4.622;2023-01-26T09:29:02;17.70;;;2.63;;
38499;SDS011;24269;51.894;4.622;2023-01-26T09:31:28;15.15;;;2.08;;
38499;SDS011;24269;51.894;4.622;2023-01-26T09:33:54;14.63;;;2.45;;
38499;SDS011;24269;51.894;4.622;2023-01-26T09:36:19;9.00;;;2.25;;
38499;SDS011;24269;51.894;4.622;2023-01-26T09:38:45;13.90;;;2.45;;
38499;SDS011;24269;51.894;4.622;2023-01-26T09:44:05;16.50;;;1.90;;
38499;SDS011;24269;51.894;4.622;2023-01-26T09:51:37;22.15;;;2.47;;
38499;SDS011;24269;51.894;4.622;2023-01-26T09:56:48;14.82;;;1.77;;
38499;SDS011;24269;51.894;4.622;2023-01-26T10:06:53;13.90;;;1.80;;
38499;SDS011;24269;51.894;4.622;2023-01-26T10:09:23;17.00;;;2.25;;
38499;SDS011;24269;51.894;4.622;2023-01-26T10:11:53;15.90;;;2.30;;
38499;SDS011;24269;51.894;4.622;2023-01-26T10:14:30;15.55;;;2.15;;
38499;SDS011;24269;51.894;4.622;2023-01-26T10:17:14;11.70;;;1.95;;
38499;SDS011;24269;51.894;4.622;2023-01-26T10:19:59;13.20;;;2.38;;
38499;SDS011;24269;51.894;4.622;2023-01-26T10:25:17;13.27;;;2.08;;
38499;SDS011;24269;51.894;4.622;2023-01-26T10:27:51;11.70;;;2.10;;
38499;SDS011;24269;51.894;4.622;2023-01-26T10:30:18;12.45;;;1.90;;
38499;SDS011;24269;51.894;4.622;2023-01-26T10:32:45;13.60;;;3.55;;
38499;SDS011;24269;51.894;4.622;2023-01-26T10:35:22;10.93;;;2.03;;
38499;SDS011;24269;51.894;4.622;2023-01-26T10:37:49;9.00;;;1.60;;
38499;SDS011;24269;51.894;4.622;2023-01-26T10:40:17;13.93;;;2.30;;
38499;SDS011;24269;51.894;4.622;2023-01-26T10:42:52;13.32;;;2.75;;
38499;SDS011;24269;51.894;4.622;2023-01-26T10:48:34;10.57;;;2.00;;
38499;SDS011;24269;51.894;4.622;2023-01-26T10:50:51;15.20;;;2.28;;
38499;SDS011;24269;51.894;4.622;2023-01-26T10:53:24;8.40;;;1.98;;
38499;SDS011;24269;51.894;4.622;2023-01-26T10:56:00;13.38;;;2.40;;
38499;SDS011;24269;51.894;4.622;2023-01-26T11:01:16;10.93;;;1.90;;
38499;SDS011;24269;51.894;4.622;2023-01-26T11:06:32;11.75;;;1.98;;
38499;SDS011;24269;51.894;4.622;2023-01-26T11:11:39;8.23;;;1.45;;
38499;SDS011;24269;51.894;4.622;2023-01-26T11:14:13;16.67;;;2.83;;
38499;SDS011;24269;51.894;4.622;2023-01-26T11:16:43;11.05;;;2.08;;
38499;SDS011;24269;51.894;4.622;2023-01-26T11:20:15;9.23;;;1.65;;
38499;SDS011;24269;51.894;4.622;2023-01-26T11:22:43;14.50;;;1.63;;
38499;SDS011;24269;51.894;4.622;2023-01-26T11:25:34;10.27;;;1.52;;
38499;SDS011;24269;51.894;4.622;2023-01-26T11:36:27;8.60;;;1.13;;
38499;SDS011;24269;51.894;4.622;2023-01-26T11:39:21;7.43;;;1.90;;
38499;SDS011;24269;51.894;4.622;2023-01-26T11:42:01;9.93;;;1.52;;
38499;SDS011;24269;51.894;4.622;2023-01-26T11:47:13;8.40;;;1.20;;
38499;SDS011;24269;51.894;4.622;2023-01-26T11:50:00;7.38;;;1.27;;
38499;SDS011;24269;51.894;4.622;2023-01-26T11:52:50;9.20;;;1.77;;
38499;SDS011;24269;51.894;4.622;2023-01-26T12:00:51;11.20;;;1.67;;
38499;SDS011;24269;51.894;4.622;2023-01-26T12:05:57;9.70;;;1.15;;
38499;SDS011;24269;51.894;4.622;2023-01-26T12:14:06;7.22;;;1.02;;
38499;SDS011;24269;51.894;4.622;2023-01-26T12:19:22;6.53;;;1.42;;
38499;SDS011;24269;51.894;4.622;2023-01-26T12:21:50;14.13;;;2.05;;
38499;SDS011;24269;51.894;4.622;2023-01-26T12:24:26;7.20;;;0.77;;
38499;SDS011;24269;51.894;4.622;2023-01-26T12:27:01;5.43;;;1.60;;
38499;SDS011;24269;51.894;4.622;2023-01-26T12:29:37;14.07;;;1.40;;
38499;SDS011;24269;51.894;4.622;2023-01-26T12:32:13;4.70;;;1.00;;
38499;SDS011;24269;51.894;4.622;2023-01-26T12:34:40;8.48;;;1.30;;
38499;SDS011;24269;51.894;4.622;2023-01-26T12:37:30;5.20;;;0.82;;
38499;SDS011;24269;51.894;4.622;2023-01-26T12:43:10;6.13;;;1.13;;
38499;SDS011;24269;51.894;4.622;2023-01-26T12:45:42;7.47;;;0.90;;
38499;SDS011;24269;51.894;4.622;2023-01-26T12:48:21;9.65;;;1.83;;
38499;SDS011;24269;51.894;4.622;2023-01-26T12:51:04;5.95;;;1.05;;
38499;SDS011;24269;51.894;4.622;2023-01-26T12:53:50;7.25;;;1.05;;
38499;SDS011;24269;51.894;4.622;2023-01-26T12:56:29;7.05;;;1.73;;
38499;SDS011;24269;51.894;4.622;2023-01-26T12:58:59;10.32;;;1.30;;
38499;SDS011;24269;51.894;4.622;2023-01-26T13:01:37;8.68;;;1.35;;
38499;SDS011;24269;51.894;4.622;2023-01-26T13:04:07;8.48;;;1.45;;
38499;SDS011;24269;51.894;4.622;2023-01-26T13:06:35;7.88;;;1.40;;
38499;SDS011;24269;51.894;4.622;2023-01-26T13:09:18;4.85;;;1.08;;
38499;SDS011;24269;51.894;4.622;2023-01-26T13:24:48;12.33;;;1.40;;
38499;SDS011;24269;51.894;4.622;2023-01-26T13:29:55;8.65;;;1.20;;
38499;SDS011;24269;51.894;4.622;2023-01-26T13:34:48;9.10;;;1.17;;
38499;SDS011;24269;51.894;4.622;2023-01-26T13:40:19;6.88;;;1.05;;
38499;SDS011;24269;51.894;4.622;2023-01-26T13:45:30;8.20;;;0.90;;
38499;SDS011;24269;51.894;4.622;2023-01-26T13:48:00;7.95;;;0.88;;
38499;SDS011;24269;51.894;4.622;2023-01-26T13:50:31;3.63;;;0.90;;
38499;SDS011;24269;51.894;4.622;2023-01-26T13:55:58;5.15;;;0.75;;
38499;SDS011;24269;51.894;4.622;2023-01-26T13:58:25;4.63;;;1.17;;
38499;SDS011;24269;51.894;4.622;2023-01-26T14:01:02;5.25;;;0.85;;
38499;SDS011;24269;51.894;4.622;2023-01-26T14:03:29;5.63;;;1.00;;
38499;SDS011;24269;51.894;4.622;2023-01-26T14:05:59;3.58;;;0.70;;
38499;SDS011;24269;51.894;4.622;2023-01-26T14:08:28;1.50;;;0.50;;
38499;SDS011;24269;51.894;4.622;2023-01-26T14:10:56;7.15;;;1.35;;
38499;SDS011;24269;51.894;4.622;2023-01-26T14:13:35;8.07;;;1.15;;
38499;SDS011;24269;51.894;4.622;2023-01-26T14:16:03;4.40;;;0.70;;
38499;SDS011;24269;51.894;4.622;2023-01-26T14:18:30;3.47;;;0.73;;
38499;SDS011;24269;51.894;4.622;2023-01-26T14:20:56;3.53;;;0.80;;
38499;SDS011;24269;51.894;4.622;2023-01-26T14:23:28;3.38;;;0.50;;
38499;SDS011;24269;51.894;4.622;2023-01-26T14:28:27;9.05;;;1.48;;
38499;SDS011;24269;51.894;4.622;2023-01-26T14:31:10;7.43;;;1.10;;
38499;SDS011;24269;51.894;4.622;2023-01-26T14:33:46;5.53;;;0.90;;
38499;SDS011;24269;51.894;4.622;2023-01-26T14:36:14;6.30;;;0.80;;
38499;SDS011;24269;51.894;4.622;2023-01-26T14:38:47;5.63;;;1.17;;
38499;SDS011;24269;51.894;4.622;2023-01-26T14:43:51;5.50;;;0.90;;
38499;SDS011;24269;51.894;4.622;2023-01-26T14:46:34;6.70;;;1.13;;
38499;SDS011;24269;51.894;4.622;2023-01-26T14:51:30;7.57;;;1.15;;
38499;SDS011;24269;51.894;4.622;2023-01-26T14:53:57;5.60;;;1.35;;
38499;SDS011;24269;51.894;4.622;2023-01-26T14:56:32;6.70;;;1.23;;
38499;SDS011;24269;51.894;4.622;2023-01-26T14:59:03;6.95;;;1.10;;
38499;SDS011;24269;51.894;4.622;2023-01-26T15:01:30;9.35;;;0.80;;
38499;SDS011;24269;51.894;4.622;2023-01-26T15:04:01;3.13;;;0.80;;
38499;SDS011;24269;51.894;4.622;2023-01-26T15:06:30;3.80;;;1.02;;
38499;SDS011;24269;51.894;4.622;2023-01-26T15:11:50;4.75;;;0.70;;
38499;SDS011;24269;51.894;4.622;2023-01-26T15:14:45;7.18;;;0.80;;
38499;SDS011;24269;51.894;4.622;2023-01-26T15:17:29;4.80;;;0.80;;
38499;SDS011;24269;51.894;4.622;2023-01-26T15:20:00;7.43;;;2.00;;
38499;SDS011;24269;51.894;4.622;2023-01-26T15:22:25;3.75;;;0.93;;
38499;SDS011;24269;51.894;4.622;2023-01-26T15:24:58;3.35;;;0.98;;
38499;SDS011;24269;51.894;4.622;2023-01-26T15:27:29;4.20;;;0.77;;
38499;SDS011;24269;51.894;4.622;2023-01-26T15:29:59;6.18;;;1.15;;
38499;SDS011;24269;51.894;4.622;2023-01-26T15:32:35;3.28;;;0.90;;
38499;SDS011;24269;51.894;4.622;2023-01-26T15:35:23;5.25;;;1.40;;
38499;SDS011;24269;51.894;4.622;2023-01-26T15:37:59;4.35;;;1.05;;
38499;SDS011;24269;51.894;4.622;2023-01-26T15:40:25;5.60;;;1.65;;
38499;SDS011;24269;51.894;4.622;2023-01-26T15:43:03;6.45;;;1.05;;
38499;SDS011;24269;51.894;4.622;2023-01-26T15:45:29;5.90;;;0.80;;
38499;SDS011;24269;51.894;4.622;2023-01-26T15:47:58;5.88;;;1.23;;
38499;SDS011;24269;51.894;4.622;2023-01-26T15:50:25;2.80;;;0.77;;
38499;SDS011;24269;51.894;4.622;2023-01-26T15:52:51;5.18;;;0.90;;
38499;SDS011;24269;51.894;4.622;2023-01-26T15:55:20;5.18;;;0.80;;
38499;SDS011;24269;51.894;4.622;2023-01-26T15:57:50;4.65;;;0.88;;
38499;SDS011;24269;51.894;4.622;2023-01-26T16:00:16;3.92;;;0.85;;
38499;SDS011;24269;51.894;4.622;2023-01-26T16:02:42;4.57;;;1.20;;
38499;SDS011;24269;51.894;4.622;2023-01-26T16:05:13;6.50;;;1.17;;
38499;SDS011;24269;51.894;4.622;2023-01-26T16:07:43;4.82;;;0.98;;
38499;SDS011;24269;51.894;4.622;2023-01-26T16:10:09;3.17;;;1.00;;
38499;SDS011;24269;51.894;4.622;2023-01-26T16:12:35;3.53;;;0.70;;
38499;SDS011;24269;51.894;4.622;2023-01-26T16:15:01;3.83;;;0.95;;
38499;SDS011;24269;51.894;4.622;2023-01-26T16:17:27;4.30;;;1.20;;
38499;SDS011;24269;51.894;4.622;2023-01-26T16:19:52;3.70;;;1.00;;
38499;SDS011;24269;51.894;4.622;2023-01-26T16:22:18;6.32;;;1.45;;
38499;SDS011;24269;51.894;4.622;2023-01-26T16:24:43;5.70;;;1.45;;
38499;SDS011;24269;51.894;4.622;2023-01-26T16:27:10;6.78;;;1.13;;
38499;SDS011;24269;51.894;4.622;2023-01-26T16:29:35;5.38;;;1.20;;